Monticello Municipal Ellis Field Monticello US
ICAO: KLLQ
IATA: LLQ
Category: Medium
Scheduled Services: No

Elevation: 270 ft
TransAlt. 18000 ft.

Airport Communications:
ASOS:133.325
MEMPHIS CNTR:135.875
JONESBORO RDO:122.1
CTAF/UNICOM:122.8

KLLQ Zoom In..

If you have problems with the map follow the link
https://www.worldairports.se/pages/airport.php?
ICAO=KLLQ

Runways:

(A) RW 03 length 5020 ft width 75 ft
---- / hdg 31

(B) RW 21 length 5020 ft width 75 ft
---- / hdg 211

Location; KLLQ
Day. 24 / Time. 10.53 Zulu
* Altimeter: 30.13
* Temperature: 16° c. 60.8°f.
* Wind from: 240° Speed 04 kn.
Dewpoint: 09° c.
Visibility: 10 Statute Miles.
Clouds: Overcast 7000 ft.

KLLQ 241053Z AUTO 24004KT 10SM OVC070 16/09 A3013 RMK AO2 SLP201 T01560089


Wind From 240°
Speed 04 kn.

 
 
jpsmedia.com for Web Design worldairports.se 2019   terms of use